sensor_id;sensor_type;location;lat;lon;timestamp;P1;durP1;ratioP1;P2;durP2;ratioP2
78960;SDS011;68362;45.970;12.646;2023-09-19T00:01:02;12.02;;;7.60;;
78960;SDS011;68362;45.970;12.646;2023-09-19T00:02:13;13.80;;;8.82;;
78960;SDS011;68362;45.970;12.646;2023-09-19T00:03:15;11.98;;;7.30;;
78960;SDS011;68362;45.970;12.646;2023-09-19T00:04:18;10.90;;;8.93;;
78960;SDS011;68362;45.970;12.646;2023-09-19T00:05:25;12.70;;;7.50;;
78960;SDS011;68362;45.970;12.646;2023-09-19T00:06:30;12.60;;;8.05;;
78960;SDS011;68362;45.970;12.646;2023-09-19T00:07:33;9.55;;;6.57;;
78960;SDS011;68362;45.970;12.646;2023-09-19T00:08:38;11.25;;;7.65;;
78960;SDS011;68362;45.970;12.646;2023-09-19T00:09:41;10.75;;;8.50;;
78960;SDS011;68362;45.970;12.646;2023-09-19T00:10:43;11.82;;;7.68;;
78960;SDS011;68362;45.970;12.646;2023-09-19T00:11:45;11.32;;;7.20;;
78960;SDS011;68362;45.970;12.646;2023-09-19T00:12:51;11.43;;;8.55;;
78960;SDS011;68362;45.970;12.646;2023-09-19T00:13:57;10.98;;;6.72;;
78960;SDS011;68362;45.970;12.646;2023-09-19T00:15:02;12.20;;;6.88;;
78960;SDS011;68362;45.970;12.646;2023-09-19T00:16:08;15.75;;;7.35;;
78960;SDS011;68362;45.970;12.646;2023-09-19T00:17:13;9.57;;;7.07;;
78960;SDS011;68362;45.970;12.646;2023-09-19T00:18:15;11.45;;;7.32;;
78960;SDS011;68362;45.970;12.646;2023-09-19T00:19:19;11.73;;;7.47;;
78960;SDS011;68362;45.970;12.646;2023-09-19T00:20:21;11.38;;;7.50;;
78960;SDS011;68362;45.970;12.646;2023-09-19T00:21:28;10.98;;;7.43;;
78960;SDS011;68362;45.970;12.646;2023-09-19T00:22:30;12.35;;;7.28;;
78960;SDS011;68362;45.970;12.646;2023-09-19T00:23:32;11.20;;;7.55;;
78960;SDS011;68362;45.970;12.646;2023-09-19T00:24:34;13.35;;;8.38;;
78960;SDS011;68362;45.970;12.646;2023-09-19T00:25:37;14.88;;;7.60;;
78960;SDS011;68362;45.970;12.646;2023-09-19T00:26:39;10.93;;;7.45;;
78960;SDS011;68362;45.970;12.646;2023-09-19T00:27:41;14.15;;;7.43;;
78960;SDS011;68362;45.970;12.646;2023-09-19T00:28:44;14.30;;;7.38;;
78960;SDS011;68362;45.970;12.646;2023-09-19T00:29:46;10.77;;;7.32;;
78960;SDS011;68362;45.970;12.646;2023-09-19T00:30:48;14.35;;;7.15;;
78960;SDS011;68362;45.970;12.646;2023-09-19T00:31:53;12.73;;;8.10;;
78960;SDS011;68362;45.970;12.646;2023-09-19T00:32:55;11.40;;;7.70;;
78960;SDS011;68362;45.970;12.646;2023-09-19T00:33:58;9.10;;;6.80;;
78960;SDS011;68362;45.970;12.646;2023-09-19T00:35:02;11.25;;;7.05;;
78960;SDS011;68362;45.970;12.646;2023-09-19T00:36:05;9.52;;;6.53;;
78960;SDS011;68362;45.970;12.646;2023-09-19T00:37:07;13.20;;;7.80;;
78960;SDS011;68362;45.970;12.646;2023-09-19T00:38:09;15.27;;;8.23;;
78960;SDS011;68362;45.970;12.646;2023-09-19T00:40:14;13.52;;;7.18;;
78960;SDS011;68362;45.970;12.646;2023-09-19T00:41:20;16.00;;;9.32;;
78960;SDS011;68362;45.970;12.646;2023-09-19T00:42:22;14.35;;;8.65;;
78960;SDS011;68362;45.970;12.646;2023-09-19T00:43:24;10.73;;;7.80;;
78960;SDS011;68362;45.970;12.646;2023-09-19T00:44:27;14.27;;;8.15;;
78960;SDS011;68362;45.970;12.646;2023-09-19T00:45:29;11.02;;;7.28;;
78960;SDS011;68362;45.970;12.646;2023-09-19T00:46:38;14.73;;;7.80;;
78960;SDS011;68362;45.970;12.646;2023-09-19T00:47:49;10.57;;;7.00;;
78960;SDS011;68362;45.970;12.646;2023-09-19T00:48:53;9.25;;;7.53;;
78960;SDS011;68362;45.970;12.646;2023-09-19T00:49:56;18.30;;;7.63;;
78960;SDS011;68362;45.970;12.646;2023-09-19T00:50:59;12.40;;;6.93;;
78960;SDS011;68362;45.970;12.646;2023-09-19T00:52:04;10.18;;;8.13;;
78960;SDS011;68362;45.970;12.646;2023-09-19T00:53:07;11.65;;;8.98;;
78960;SDS011;68362;45.970;12.646;2023-09-19T00:54:11;10.98;;;7.05;;
78960;SDS011;68362;45.970;12.646;2023-09-19T00:55:19;13.57;;;7.60;;
78960;SDS011;68362;45.970;12.646;2023-09-19T00:56:22;10.85;;;7.80;;
78960;SDS011;68362;45.970;12.646;2023-09-19T00:57:25;17.33;;;8.10;;
78960;SDS011;68362;45.970;12.646;2023-09-19T00:58:27;11.48;;;7.90;;
78960;SDS011;68362;45.970;12.646;2023-09-19T00:59:34;13.40;;;8.05;;
78960;SDS011;68362;45.970;12.646;2023-09-19T01:01:40;10.82;;;6.93;;
78960;SDS011;68362;45.970;12.646;2023-09-19T01:02:42;12.20;;;7.35;;
78960;SDS011;68362;45.970;12.646;2023-09-19T01:03:45;19.38;;;8.32;;
78960;SDS011;68362;45.970;12.646;2023-09-19T01:04:48;13.63;;;8.05;;
78960;SDS011;68362;45.970;12.646;2023-09-19T01:06:53;11.20;;;7.80;;
78960;SDS011;68362;45.970;12.646;2023-09-19T01:07:55;13.70;;;8.82;;
78960;SDS011;68362;45.970;12.646;2023-09-19T01:08:57;13.30;;;8.13;;
78960;SDS011;68362;45.970;12.646;2023-09-19T01:10:03;19.67;;;8.18;;
78960;SDS011;68362;45.970;12.646;2023-09-19T01:11:13;13.50;;;9.05;;
78960;SDS011;68362;45.970;12.646;2023-09-19T01:12:30;11.68;;;7.78;;
78960;SDS011;68362;45.970;12.646;2023-09-19T01:13:57;16.17;;;8.18;;
78960;SDS011;68362;45.970;12.646;2023-09-19T01:16:28;11.35;;;8.18;;
78960;SDS011;68362;45.970;12.646;2023-09-19T01:18:11;12.38;;;8.07;;
78960;SDS011;68362;45.970;12.646;2023-09-19T01:27:17;14.02;;;8.02;;
78960;SDS011;68362;45.970;12.646;2023-09-19T01:30:14;12.88;;;8.50;;
78960;SDS011;68362;45.970;12.646;2023-09-19T01:31:21;14.50;;;8.05;;
78960;SDS011;68362;45.970;12.646;2023-09-19T01:32:25;12.60;;;7.97;;
78960;SDS011;68362;45.970;12.646;2023-09-19T01:33:28;13.50;;;7.28;;
78960;SDS011;68362;45.970;12.646;2023-09-19T01:35:58;13.20;;;8.57;;
78960;SDS011;68362;45.970;12.646;2023-09-19T01:37:00;11.65;;;7.63;;
78960;SDS011;68362;45.970;12.646;2023-09-19T01:38:03;12.43;;;8.00;;
78960;SDS011;68362;45.970;12.646;2023-09-19T01:39:06;13.13;;;7.80;;
78960;SDS011;68362;45.970;12.646;2023-09-19T01:40:13;12.57;;;6.85;;
78960;SDS011;68362;45.970;12.646;2023-09-19T01:41:23;14.55;;;7.75;;
78960;SDS011;68362;45.970;12.646;2023-09-19T01:42:37;10.75;;;7.47;;
78960;SDS011;68362;45.970;12.646;2023-09-19T01:43:44;12.18;;;7.90;;
78960;SDS011;68362;45.970;12.646;2023-09-19T01:44:55;11.00;;;8.45;;
78960;SDS011;68362;45.970;12.646;2023-09-19T01:46:16;11.15;;;6.82;;
78960;SDS011;68362;45.970;12.646;2023-09-19T01:47:26;13.65;;;7.75;;
78960;SDS011;68362;45.970;12.646;2023-09-19T01:50:18;11.88;;;7.50;;
78960;SDS011;68362;45.970;12.646;2023-09-19T01:52:47;16.52;;;8.02;;
78960;SDS011;68362;45.970;12.646;2023-09-19T01:54:00;16.63;;;8.38;;
78960;SDS011;68362;45.970;12.646;2023-09-19T01:55:08;15.55;;;8.98;;
78960;SDS011;68362;45.970;12.646;2023-09-19T01:56:13;13.25;;;7.65;;
78960;SDS011;68362;45.970;12.646;2023-09-19T01:57:22;9.60;;;7.22;;
78960;SDS011;68362;45.970;12.646;2023-09-19T01:58:35;12.60;;;7.40;;
78960;SDS011;68362;45.970;12.646;2023-09-19T01:59:45;10.90;;;7.10;;
78960;SDS011;68362;45.970;12.646;2023-09-19T02:00:54;15.20;;;7.35;;
78960;SDS011;68362;45.970;12.646;2023-09-19T02:01:58;20.25;;;7.63;;
78960;SDS011;68362;45.970;12.646;2023-09-19T02:03:01;10.70;;;7.28;;
78960;SDS011;68362;45.970;12.646;2023-09-19T02:04:05;13.07;;;8.07;;
78960;SDS011;68362;45.970;12.646;2023-09-19T02:05:07;14.93;;;7.93;;
78960;SDS011;68362;45.970;12.646;2023-09-19T02:06:13;14.15;;;7.43;;
78960;SDS011;68362;45.970;12.646;2023-09-19T02:07:17;12.98;;;7.15;;
78960;SDS011;68362;45.970;12.646;2023-09-19T02:08:20;13.40;;;7.00;;
78960;SDS011;68362;45.970;12.646;2023-09-19T02:09:26;15.07;;;6.88;;
78960;SDS011;68362;45.970;12.646;2023-09-19T02:10:28;9.23;;;6.72;;
78960;SDS011;68362;45.970;12.646;2023-09-19T02:11:30;12.57;;;7.07;;
78960;SDS011;68362;45.970;12.646;2023-09-19T02:12:33;14.77;;;6.38;;
78960;SDS011;68362;45.970;12.646;2023-09-19T02:13:37;11.48;;;7.47;;
78960;SDS011;68362;45.970;12.646;2023-09-19T02:14:40;11.88;;;7.80;;
78960;SDS011;68362;45.970;12.646;2023-09-19T02:15:42;10.63;;;6.45;;
78960;SDS011;68362;45.970;12.646;2023-09-19T02:16:46;15.35;;;6.72;;
78960;SDS011;68362;45.970;12.646;2023-09-19T02:18:51;11.32;;;6.57;;
78960;SDS011;68362;45.970;12.646;2023-09-19T02:19:54;11.43;;;6.07;;
78960;SDS011;68362;45.970;12.646;2023-09-19T02:20:57;9.10;;;6.18;;
78960;SDS011;68362;45.970;12.646;2023-09-19T02:22:00;14.00;;;6.82;;
78960;SDS011;68362;45.970;12.646;2023-09-19T02:23:05;7.97;;;5.88;;
78960;SDS011;68362;45.970;12.646;2023-09-19T02:25:10;12.40;;;6.88;;
78960;SDS011;68362;45.970;12.646;2023-09-19T02:26:12;13.65;;;6.18;;
78960;SDS011;68362;45.970;12.646;2023-09-19T02:27:15;12.05;;;6.55;;
78960;SDS011;68362;45.970;12.646;2023-09-19T02:28:17;13.55;;;6.15;;
78960;SDS011;68362;45.970;12.646;2023-09-19T02:29:20;11.27;;;6.20;;
78960;SDS011;68362;45.970;12.646;2023-09-19T02:30:24;12.13;;;6.88;;
78960;SDS011;68362;45.970;12.646;2023-09-19T02:31:29;12.75;;;6.03;;
78960;SDS011;68362;45.970;12.646;2023-09-19T02:32:32;13.40;;;6.40;;
78960;SDS011;68362;45.970;12.646;2023-09-19T02:33:37;12.75;;;6.47;;
78960;SDS011;68362;45.970;12.646;2023-09-19T02:34:40;8.90;;;5.90;;
78960;SDS011;68362;45.970;12.646;2023-09-19T02:35:43;11.50;;;6.05;;
78960;SDS011;68362;45.970;12.646;2023-09-19T02:36:45;11.00;;;5.82;;
78960;SDS011;68362;45.970;12.646;2023-09-19T02:37:48;11.00;;;6.57;;
78960;SDS011;68362;45.970;12.646;2023-09-19T02:38:51;10.85;;;6.18;;
78960;SDS011;68362;45.970;12.646;2023-09-19T02:39:53;10.50;;;6.22;;
78960;SDS011;68362;45.970;12.646;2023-09-19T02:40:55;11.07;;;6.22;;
78960;SDS011;68362;45.970;12.646;2023-09-19T02:41:58;15.90;;;6.32;;
78960;SDS011;68362;45.970;12.646;2023-09-19T02:43:00;9.77;;;5.80;;
78960;SDS011;68362;45.970;12.646;2023-09-19T02:44:02;11.85;;;6.47;;
78960;SDS011;68362;45.970;12.646;2023-09-19T02:45:04;9.10;;;5.35;;
78960;SDS011;68362;45.970;12.646;2023-09-19T02:46:07;10.75;;;6.50;;
78960;SDS011;68362;45.970;12.646;2023-09-19T02:47:10;10.23;;;6.18;;
78960;SDS011;68362;45.970;12.646;2023-09-19T02:48:12;10.13;;;6.40;;
78960;SDS011;68362;45.970;12.646;2023-09-19T02:49:14;8.25;;;5.53;;
78960;SDS011;68362;45.970;12.646;2023-09-19T02:50:17;11.73;;;5.65;;
78960;SDS011;68362;45.970;12.646;2023-09-19T02:51:19;10.68;;;6.35;;
78960;SDS011;68362;45.970;12.646;2023-09-19T02:52:22;10.90;;;6.18;;
78960;SDS011;68362;45.970;12.646;2023-09-19T02:53:26;11.73;;;5.82;;
78960;SDS011;68362;45.970;12.646;2023-09-19T02:54:29;10.20;;;5.78;;
78960;SDS011;68362;45.970;12.646;2023-09-19T02:55:31;10.40;;;5.78;;
78960;SDS011;68362;45.970;12.646;2023-09-19T02:56:33;10.13;;;6.10;;
78960;SDS011;68362;45.970;12.646;2023-09-19T02:57:37;14.75;;;5.93;;
78960;SDS011;68362;45.970;12.646;2023-09-19T02:58:42;10.32;;;5.57;;
78960;SDS011;68362;45.970;12.646;2023-09-19T02:59:44;10.23;;;5.65;;
78960;SDS011;68362;45.970;12.646;2023-09-19T03:00:46;11.30;;;5.80;;
78960;SDS011;68362;45.970;12.646;2023-09-19T03:01:49;10.32;;;5.60;;
78960;SDS011;68362;45.970;12.646;2023-09-19T03:02:55;14.68;;;6.00;;
78960;SDS011;68362;45.970;12.646;2023-09-19T03:03:58;10.80;;;5.78;;
78960;SDS011;68362;45.970;12.646;2023-09-19T03:05:00;11.15;;;5.68;;
78960;SDS011;68362;45.970;12.646;2023-09-19T03:06:05;9.48;;;5.72;;
78960;SDS011;68362;45.970;12.646;2023-09-19T03:07:08;11.50;;;6.13;;
78960;SDS011;68362;45.970;12.646;2023-09-19T03:08:13;13.52;;;6.20;;
78960;SDS011;68362;45.970;12.646;2023-09-19T03:09:16;13.38;;;7.07;;
78960;SDS011;68362;45.970;12.646;2023-09-19T03:10:19;11.38;;;5.93;;
78960;SDS011;68362;45.970;12.646;2023-09-19T03:11:22;9.75;;;6.13;;
78960;SDS011;68362;45.970;12.646;2023-09-19T03:12:25;11.00;;;5.65;;
78960;SDS011;68362;45.970;12.646;2023-09-19T03:13:28;8.63;;;5.78;;
78960;SDS011;68362;45.970;12.646;2023-09-19T03:14:32;8.82;;;6.18;;
78960;SDS011;68362;45.970;12.646;2023-09-19T03:15:40;15.25;;;7.78;;
78960;SDS011;68362;45.970;12.646;2023-09-19T03:16:45;16.88;;;6.65;;
78960;SDS011;68362;45.970;12.646;2023-09-19T03:17:48;13.32;;;7.07;;
78960;SDS011;68362;45.970;12.646;2023-09-19T03:18:51;9.65;;;6.47;;
78960;SDS011;68362;45.970;12.646;2023-09-19T03:19:53;11.63;;;7.18;;
78960;SDS011;68362;45.970;12.646;2023-09-19T03:20:55;11.82;;;6.97;;
78960;SDS011;68362;45.970;12.646;2023-09-19T03:21:58;14.70;;;7.70;;
78960;SDS011;68362;45.970;12.646;2023-09-19T03:23:00;12.07;;;7.72;;
78960;SDS011;68362;45.970;12.646;2023-09-19T03:25:06;15.60;;;7.90;;
78960;SDS011;68362;45.970;12.646;2023-09-19T03:26:09;17.85;;;8.70;;
78960;SDS011;68362;45.970;12.646;2023-09-19T03:27:12;16.83;;;8.25;;
78960;SDS011;68362;45.970;12.646;2023-09-19T03:28:18;13.93;;;8.55;;
78960;SDS011;68362;45.970;12.646;2023-09-19T03:29:20;12.75;;;8.15;;
78960;SDS011;68362;45.970;12.646;2023-09-19T03:30:22;15.98;;;8.65;;
78960;SDS011;68362;45.970;12.646;2023-09-19T03:31:24;10.93;;;8.07;;
78960;SDS011;68362;45.970;12.646;2023-09-19T03:32:27;14.65;;;9.05;;
78960;SDS011;68362;45.970;12.646;2023-09-19T03:33:29;15.10;;;8.68;;
78960;SDS011;68362;45.970;12.646;2023-09-19T03:34:33;12.23;;;7.43;;
78960;SDS011;68362;45.970;12.646;2023-09-19T03:35:37;18.10;;;8.93;;
78960;SDS011;68362;45.970;12.646;2023-09-19T03:36:41;17.15;;;9.38;;
78960;SDS011;68362;45.970;12.646;2023-09-19T03:37:44;17.15;;;9.82;;
78960;SDS011;68362;45.970;12.646;2023-09-19T03:38:46;13.73;;;9.07;;
78960;SDS011;68362;45.970;12.646;2023-09-19T03:39:48;21.80;;;10.85;;
78960;SDS011;68362;45.970;12.646;2023-09-19T03:40:51;15.10;;;9.05;;
78960;SDS011;68362;45.970;12.646;2023-09-19T03:41:53;15.18;;;8.68;;
78960;SDS011;68362;45.970;12.646;2023-09-19T03:42:55;18.20;;;9.35;;
78960;SDS011;68362;45.970;12.646;2023-09-19T03:43:57;15.45;;;10.35;;
78960;SDS011;68362;45.970;12.646;2023-09-19T03:45:00;16.27;;;9.73;;
78960;SDS011;68362;45.970;12.646;2023-09-19T03:46:05;17.38;;;10.10;;
78960;SDS011;68362;45.970;12.646;2023-09-19T03:47:09;14.90;;;9.07;;
78960;SDS011;68362;45.970;12.646;2023-09-19T03:48:11;17.83;;;9.45;;
78960;SDS011;68362;45.970;12.646;2023-09-19T03:49:15;16.05;;;9.38;;
78960;SDS011;68362;45.970;12.646;2023-09-19T03:50:17;16.52;;;10.00;;
78960;SDS011;68362;45.970;12.646;2023-09-19T03:51:19;19.05;;;9.35;;
78960;SDS011;68362;45.970;12.646;2023-09-19T03:52:21;13.25;;;9.35;;
78960;SDS011;68362;45.970;12.646;2023-09-19T03:53:24;14.98;;;8.75;;
78960;SDS011;68362;45.970;12.646;2023-09-19T03:54:26;18.80;;;9.35;;
78960;SDS011;68362;45.970;12.646;2023-09-19T03:55:28;15.70;;;10.48;;
78960;SDS011;68362;45.970;12.646;2023-09-19T03:56:32;14.70;;;8.38;;
78960;SDS011;68362;45.970;12.646;2023-09-19T03:57:34;19.63;;;9.48;;
78960;SDS011;68362;45.970;12.646;2023-09-19T03:59:41;14.15;;;9.63;;
78960;SDS011;68362;45.970;12.646;2023-09-19T04:00:44;13.90;;;9.68;;
78960;SDS011;68362;45.970;12.646;2023-09-19T04:01:47;16.10;;;8.52;;
78960;SDS011;68362;45.970;12.646;2023-09-19T04:02:51;17.08;;;9.82;;
78960;SDS011;68362;45.970;12.646;2023-09-19T04:03:53;12.48;;;8.93;;
78960;SDS011;68362;45.970;12.646;2023-09-19T04:04:55;14.20;;;9.90;;
78960;SDS011;68362;45.970;12.646;2023-09-19T04:05:58;11.48;;;8.38;;
78960;SDS011;68362;45.970;12.646;2023-09-19T04:07:00;15.85;;;10.02;;
78960;SDS011;68362;45.970;12.646;2023-09-19T04:08:02;18.55;;;9.35;;
78960;SDS011;68362;45.970;12.646;2023-09-19T04:09:04;16.55;;;9.38;;
78960;SDS011;68362;45.970;12.646;2023-09-19T04:10:08;12.98;;;8.85;;
78960;SDS011;68362;45.970;12.646;2023-09-19T04:11:13;16.40;;;8.25;;
78960;SDS011;68362;45.970;12.646;2023-09-19T04:12:15;14.75;;;8.93;;
78960;SDS011;68362;45.970;12.646;2023-09-19T04:13:20;16.92;;;9.40;;
78960;SDS011;68362;45.970;12.646;2023-09-19T04:14:22;14.20;;;10.00;;
78960;SDS011;68362;45.970;12.646;2023-09-19T04:15:25;14.50;;;9.40;;
78960;SDS011;68362;45.970;12.646;2023-09-19T04:16:27;13.10;;;9.65;;
78960;SDS011;68362;45.970;12.646;2023-09-19T04:17:29;15.82;;;9.63;;
78960;SDS011;68362;45.970;12.646;2023-09-19T04:18:32;17.40;;;10.30;;
78960;SDS011;68362;45.970;12.646;2023-09-19T04:19:35;13.50;;;9.48;;
78960;SDS011;68362;45.970;12.646;2023-09-19T04:20:37;13.13;;;9.68;;
78960;SDS011;68362;45.970;12.646;2023-09-19T04:21:39;16.65;;;10.95;;
78960;SDS011;68362;45.970;12.646;2023-09-19T04:22:43;14.82;;;10.13;;
78960;SDS011;68362;45.970;12.646;2023-09-19T04:23:45;15.23;;;9.85;;
78960;SDS011;68362;45.970;12.646;2023-09-19T04:24:47;15.27;;;9.82;;
78960;SDS011;68362;45.970;12.646;2023-09-19T04:25:49;15.43;;;10.52;;
78960;SDS011;68362;45.970;12.646;2023-09-19T04:26:52;21.77;;;12.00;;
78960;SDS011;68362;45.970;12.646;2023-09-19T04:27:54;13.02;;;10.60;;
78960;SDS011;68362;45.970;12.646;2023-09-19T04:28:56;15.10;;;10.23;;
78960;SDS011;68362;45.970;12.646;2023-09-19T04:29:58;13.48;;;9.55;;
78960;SDS011;68362;45.970;12.646;2023-09-19T04:32:03;15.23;;;8.75;;
78960;SDS011;68362;45.970;12.646;2023-09-19T04:33:06;14.57;;;8.70;;
78960;SDS011;68362;45.970;12.646;2023-09-19T04:35:12;12.52;;;8.75;;
78960;SDS011;68362;45.970;12.646;2023-09-19T04:36:14;15.38;;;8.98;;
78960;SDS011;68362;45.970;12.646;2023-09-19T04:37:37;14.85;;;8.55;;
78960;SDS011;68362;45.970;12.646;2023-09-19T04:38:40;11.77;;;8.38;;
78960;SDS011;68362;45.970;12.646;2023-09-19T04:39:46;14.30;;;9.27;;
78960;SDS011;68362;45.970;12.646;2023-09-19T04:40:48;12.23;;;8.25;;
78960;SDS011;68362;45.970;12.646;2023-09-19T04:41:51;13.27;;;8.30;;
78960;SDS011;68362;45.970;12.646;2023-09-19T04:42:53;12.50;;;8.15;;
78960;SDS011;68362;45.970;12.646;2023-09-19T04:43:59;10.57;;;7.95;;
78960;SDS011;68362;45.970;12.646;2023-09-19T04:46:05;14.88;;;8.45;;
78960;SDS011;68362;45.970;12.646;2023-09-19T04:47:08;15.77;;;8.30;;
78960;SDS011;68362;45.970;12.646;2023-09-19T04:48:11;15.38;;;8.40;;
78960;SDS011;68362;45.970;12.646;2023-09-19T04:49:13;13.80;;;8.15;;
78960;SDS011;68362;45.970;12.646;2023-09-19T04:50:15;16.00;;;8.20;;
78960;SDS011;68362;45.970;12.646;2023-09-19T04:51:18;12.15;;;7.43;;
78960;SDS011;68362;45.970;12.646;2023-09-19T04:52:22;10.15;;;6.95;;
78960;SDS011;68362;45.970;12.646;2023-09-19T04:53:24;10.75;;;7.85;;
78960;SDS011;68362;45.970;12.646;2023-09-19T04:54:26;11.68;;;7.00;;
78960;SDS011;68362;45.970;12.646;2023-09-19T04:55:28;12.90;;;7.68;;
78960;SDS011;68362;45.970;12.646;2023-09-19T04:56:32;10.95;;;6.93;;
78960;SDS011;68362;45.970;12.646;2023-09-19T04:58:38;10.38;;;6.10;;
78960;SDS011;68362;45.970;12.646;2023-09-19T04:59:40;10.65;;;7.10;;
78960;SDS011;68362;45.970;12.646;2023-09-19T05:00:43;10.23;;;6.35;;
78960;SDS011;68362;45.970;12.646;2023-09-19T05:01:45;15.55;;;6.78;;
78960;SDS011;68362;45.970;12.646;2023-09-19T05:02:51;12.25;;;6.72;;
78960;SDS011;68362;45.970;12.646;2023-09-19T05:03:55;10.02;;;6.53;;
78960;SDS011;68362;45.970;12.646;2023-09-19T05:04:57;13.38;;;6.03;;
78960;SDS011;68362;45.970;12.646;2023-09-19T05:06:02;8.50;;;5.75;;
78960;SDS011;68362;45.970;12.646;2023-09-19T05:07:04;9.27;;;5.68;;
78960;SDS011;68362;45.970;12.646;2023-09-19T05:08:06;10.07;;;6.22;;
78960;SDS011;68362;45.970;12.646;2023-09-19T05:09:10;10.30;;;5.65;;
78960;SDS011;68362;45.970;12.646;2023-09-19T05:10:13;9.25;;;6.03;;
78960;SDS011;68362;45.970;12.646;2023-09-19T05:11:15;10.35;;;6.50;;
78960;SDS011;68362;45.970;12.646;2023-09-19T05:12:17;10.38;;;6.22;;
78960;SDS011;68362;45.970;12.646;2023-09-19T05:13:21;9.43;;;6.15;;
78960;SDS011;68362;45.970;12.646;2023-09-19T05:14:25;8.75;;;6.72;;
78960;SDS011;68362;45.970;12.646;2023-09-19T05:15:27;10.13;;;6.43;;
78960;SDS011;68362;45.970;12.646;2023-09-19T05:16:29;9.95;;;5.95;;
78960;SDS011;68362;45.970;12.646;2023-09-19T05:17:34;9.93;;;6.35;;
78960;SDS011;68362;45.970;12.646;2023-09-19T05:19:38;11.85;;;6.82;;
78960;SDS011;68362;45.970;12.646;2023-09-19T05:20:41;8.48;;;6.57;;
78960;SDS011;68362;45.970;12.646;2023-09-19T05:21:44;12.50;;;7.85;;
78960;SDS011;68362;45.970;12.646;2023-09-19T05:22:46;9.50;;;6.32;;
78960;SDS011;68362;45.970;12.646;2023-09-19T05:23:48;9.45;;;6.65;;
78960;SDS011;68362;45.970;12.646;2023-09-19T05:24:51;10.35;;;6.88;;
78960;SDS011;68362;45.970;12.646;2023-09-19T05:25:54;10.90;;;6.38;;
78960;SDS011;68362;45.970;12.646;2023-09-19T05:26:59;8.85;;;6.38;;
78960;SDS011;68362;45.970;12.646;2023-09-19T05:28:01;10.52;;;6.28;;
78960;SDS011;68362;45.970;12.646;2023-09-19T05:29:06;9.70;;;5.82;;
78960;SDS011;68362;45.970;12.646;2023-09-19T05:30:09;9.82;;;6.28;;
78960;SDS011;68362;45.970;12.646;2023-09-19T05:31:12;7.95;;;4.88;;
78960;SDS011;68362;45.970;12.646;2023-09-19T05:32:14;9.57;;;5.10;;
78960;SDS011;68362;45.970;12.646;2023-09-19T05:33:17;10.05;;;5.47;;
78960;SDS011;68362;45.970;12.646;2023-09-19T05:34:20;9.57;;;5.05;;
78960;SDS011;68362;45.970;12.646;2023-09-19T05:35:22;11.63;;;5.22;;
78960;SDS011;68362;45.970;12.646;2023-09-19T05:36:25;9.60;;;5.40;;
78960;SDS011;68362;45.970;12.646;2023-09-19T05:37:27;7.35;;;4.55;;
78960;SDS011;68362;45.970;12.646;2023-09-19T05:38:29;9.35;;;5.15;;
78960;SDS011;68362;45.970;12.646;2023-09-19T05:39:31;8.38;;;4.93;;
78960;SDS011;68362;45.970;12.646;2023-09-19T05:40:33;9.23;;;5.28;;
78960;SDS011;68362;45.970;12.646;2023-09-19T05:41:36;9.45;;;4.90;;
78960;SDS011;68362;45.970;12.646;2023-09-19T05:42:38;6.47;;;4.60;;
78960;SDS011;68362;45.970;12.646;2023-09-19T05:43:41;10.15;;;4.80;;
78960;SDS011;68362;45.970;12.646;2023-09-19T05:45:46;11.18;;;5.78;;
78960;SDS011;68362;45.970;12.646;2023-09-19T05:46:48;12.80;;;4.70;;
78960;SDS011;68362;45.970;12.646;2023-09-19T05:47:51;6.88;;;4.30;;
78960;SDS011;68362;45.970;12.646;2023-09-19T05:48:57;7.32;;;4.72;;
78960;SDS011;68362;45.970;12.646;2023-09-19T05:50:00;6.72;;;4.28;;
78960;SDS011;68362;45.970;12.646;2023-09-19T05:51:02;10.32;;;4.55;;
78960;SDS011;68362;45.970;12.646;2023-09-19T05:52:05;7.70;;;4.85;;
78960;SDS011;68362;45.970;12.646;2023-09-19T05:53:08;8.00;;;4.10;;
78960;SDS011;68362;45.970;12.646;2023-09-19T05:54:12;7.15;;;4.07;;
78960;SDS011;68362;45.970;12.646;2023-09-19T05:55:14;8.35;;;4.25;;
78960;SDS011;68362;45.970;12.646;2023-09-19T05:56:16;8.02;;;4.05;;
78960;SDS011;68362;45.970;12.646;2023-09-19T05:57:21;9.60;;;4.18;;
78960;SDS011;68362;45.970;12.646;2023-09-19T05:58:24;10.80;;;4.20;;
78960;SDS011;68362;45.970;12.646;2023-09-19T05:59:26;7.25;;;4.32;;
78960;SDS011;68362;45.970;12.646;2023-09-19T06:00:28;6.18;;;3.92;;
78960;SDS011;68362;45.970;12.646;2023-09-19T06:01:31;5.10;;;2.72;;
78960;SDS011;68362;45.970;12.646;2023-09-19T06:02:36;9.88;;;3.30;;
78960;SDS011;68362;45.970;12.646;2023-09-19T06:03:39;8.32;;;3.25;;
78960;SDS011;68362;45.970;12.646;2023-09-19T06:04:42;7.25;;;3.67;;
78960;SDS011;68362;45.970;12.646;2023-09-19T06:05:44;11.75;;;3.95;;
78960;SDS011;68362;45.970;12.646;2023-09-19T06:06:47;7.30;;;3.55;;
78960;SDS011;68362;45.970;12.646;2023-09-19T06:08:53;7.18;;;3.70;;
78960;SDS011;68362;45.970;12.646;2023-09-19T06:09:56;7.05;;;3.50;;
78960;SDS011;68362;45.970;12.646;2023-09-19T06:10:58;8.25;;;3.00;;
78960;SDS011;68362;45.970;12.646;2023-09-19T06:12:01;6.65;;;3.05;;
78960;SDS011;68362;45.970;12.646;2023-09-19T06:13:06;8.15;;;3.78;;
78960;SDS011;68362;45.970;12.646;2023-09-19T06:14:12;4.55;;;2.95;;
78960;SDS011;68362;45.970;12.646;2023-09-19T06:15:14;4.55;;;2.40;;
78960;SDS011;68362;45.970;12.646;2023-09-19T06:16:17;6.68;;;3.42;;
78960;SDS011;68362;45.970;12.646;2023-09-19T06:17:21;6.43;;;3.25;;
78960;SDS011;68362;45.970;12.646;2023-09-19T06:18:24;8.70;;;2.88;;
78960;SDS011;68362;45.970;12.646;2023-09-19T06:19:28;5.13;;;2.90;;
78960;SDS011;68362;45.970;12.646;2023-09-19T06:20:30;6.30;;;3.13;;
78960;SDS011;68362;45.970;12.646;2023-09-19T06:22:36;5.65;;;2.78;;
78960;SDS011;68362;45.970;12.646;2023-09-19T06:23:38;6.60;;;3.10;;
78960;SDS011;68362;45.970;12.646;2023-09-19T06:24:41;3.75;;;2.83;;
78960;SDS011;68362;45.970;12.646;2023-09-19T06:25:43;7.20;;;3.83;;
78960;SDS011;68362;45.970;12.646;2023-09-19T06:26:45;5.57;;;2.90;;
78960;SDS011;68362;45.970;12.646;2023-09-19T06:27:50;5.95;;;3.53;;
78960;SDS011;68362;45.970;12.646;2023-09-19T06:28:58;5.20;;;3.10;;
78960;SDS011;68362;45.970;12.646;2023-09-19T06:30:01;7.68;;;3.47;;
78960;SDS011;68362;45.970;12.646;2023-09-19T06:31:04;5.88;;;3.08;;
78960;SDS011;68362;45.970;12.646;2023-09-19T06:32:11;9.93;;;3.25;;
78960;SDS011;68362;45.970;12.646;2023-09-19T06:33:14;7.13;;;3.22;;
78960;SDS011;68362;45.970;12.646;2023-09-19T06:34:20;7.90;;;3.80;;
78960;SDS011;68362;45.970;12.646;2023-09-19T06:35:22;5.35;;;3.78;;
78960;SDS011;68362;45.970;12.646;2023-09-19T06:36:24;11.10;;;4.18;;
78960;SDS011;68362;45.970;12.646;2023-09-19T06:37:27;6.70;;;3.47;;
78960;SDS011;68362;45.970;12.646;2023-09-19T06:38:30;4.82;;;3.33;;
78960;SDS011;68362;45.970;12.646;2023-09-19T06:39:33;6.90;;;3.20;;
78960;SDS011;68362;45.970;12.646;2023-09-19T06:40:35;7.05;;;3.65;;
78960;SDS011;68362;45.970;12.646;2023-09-19T06:41:37;8.55;;;3.50;;
78960;SDS011;68362;45.970;12.646;2023-09-19T06:42:41;6.03;;;3.28;;
78960;SDS011;68362;45.970;12.646;2023-09-19T06:43:47;10.30;;;3.53;;
78960;SDS011;68362;45.970;12.646;2023-09-19T06:44:49;5.85;;;3.38;;
78960;SDS011;68362;45.970;12.646;2023-09-19T06:45:51;7.57;;;3.67;;